sensor_id;sensor_type;location;lat;lon;timestamp;pressure;altitude;pressure_sealevel;temperature;humidity
73700;BME280;62005;50.082;8.988;2023-12-20T00:02:22;100566.03;;;5.45;100.00
73700;BME280;62005;50.082;8.988;2023-12-20T00:04:48;100558.34;;;5.42;100.00
73700;BME280;62005;50.082;8.988;2023-12-20T00:07:13;100561.84;;;5.42;100.00
73700;BME280;62005;50.082;8.988;2023-12-20T00:09:39;100555.84;;;5.40;100.00
73700;BME280;62005;50.082;8.988;2023-12-20T00:12:05;100548.63;;;5.41;100.00
73700;BME280;62005;50.082;8.988;2023-12-20T00:14:30;100559.16;;;5.42;100.00
73700;BME280;62005;50.082;8.988;2023-12-20T00:16:55;100562.69;;;5.43;100.00
73700;BME280;62005;50.082;8.988;2023-12-20T00:19:21;100559.00;;;5.44;100.00
73700;BME280;62005;50.082;8.988;2023-12-20T00:21:46;100549.00;;;5.38;100.00
73700;BME280;62005;50.082;8.988;2023-12-20T00:24:12;100546.59;;;5.43;100.00
73700;BME280;62005;50.082;8.988;2023-12-20T00:26:37;100539.59;;;5.42;100.00
73700;BME280;62005;50.082;8.988;2023-12-20T00:29:02;100553.66;;;5.44;100.00
73700;BME280;62005;50.082;8.988;2023-12-20T00:31:28;100545.59;;;5.44;100.00
73700;BME280;62005;50.082;8.988;2023-12-20T00:33:53;100547.63;;;5.42;100.00
73700;BME280;62005;50.082;8.988;2023-12-20T00:36:19;100532.53;;;5.41;100.00
73700;BME280;62005;50.082;8.988;2023-12-20T00:38:45;100520.19;;;5.40;100.00
73700;BME280;62005;50.082;8.988;2023-12-20T00:41:10;100530.53;;;5.43;100.00
73700;BME280;62005;50.082;8.988;2023-12-20T00:43:35;100514.81;;;5.40;100.00
73700;BME280;62005;50.082;8.988;2023-12-20T00:46:01;100516.03;;;5.37;100.00
73700;BME280;62005;50.082;8.988;2023-12-20T00:48:26;100532.53;;;5.41;100.00
73700;BME280;62005;50.082;8.988;2023-12-20T00:50:52;100532.19;;;5.44;100.00
73700;BME280;62005;50.082;8.988;2023-12-20T00:53:18;100520.44;;;5.45;100.00
73700;BME280;62005;50.082;8.988;2023-12-20T00:55:45;100509.06;;;5.43;100.00
73700;BME280;62005;50.082;8.988;2023-12-20T00:58:10;100509.06;;;5.43;100.00
73700;BME280;62005;50.082;8.988;2023-12-20T01:00:35;100516.56;;;5.47;100.00
73700;BME280;62005;50.082;8.988;2023-12-20T01:03:01;100520.06;;;5.48;100.00
73700;BME280;62005;50.082;8.988;2023-12-20T01:05:26;100519.41;;;5.46;100.00
73700;BME280;62005;50.082;8.988;2023-12-20T01:07:52;100508.69;;;5.46;100.00
73700;BME280;62005;50.082;8.988;2023-12-20T01:10:17;100516.13;;;5.44;100.00
73700;BME280;62005;50.082;8.988;2023-12-20T01:12:43;100510.75;;;5.44;100.00
73700;BME280;62005;50.082;8.988;2023-12-20T01:15:09;100514.06;;;5.46;100.00
73700;BME280;62005;50.082;8.988;2023-12-20T01:17:34;100517.78;;;5.45;100.00
73700;BME280;62005;50.082;8.988;2023-12-20T01:20:00;100512.03;;;5.48;100.00
73700;BME280;62005;50.082;8.988;2023-12-20T01:22:25;100508.34;;;5.49;100.00
73700;BME280;62005;50.082;8.988;2023-12-20T01:24:51;100513.72;;;5.49;100.00
73700;BME280;62005;50.082;8.988;2023-12-20T01:27:16;100504.00;;;5.48;100.00
73700;BME280;62005;50.082;8.988;2023-12-20T01:29:41;100495.47;;;5.44;100.00
73700;BME280;62005;50.082;8.988;2023-12-20T01:32:07;100503.00;;;5.49;100.00
73700;BME280;62005;50.082;8.988;2023-12-20T01:34:32;100498.63;;;5.48;100.00
73700;BME280;62005;50.082;8.988;2023-12-20T01:36:58;100492.53;;;5.39;100.00
73700;BME280;62005;50.082;8.988;2023-12-20T01:39:23;100490.97;;;5.45;100.00
73700;BME280;62005;50.082;8.988;2023-12-20T01:41:49;100499.66;;;5.47;100.00
73700;BME280;62005;50.082;8.988;2023-12-20T01:44:14;100504.63;;;5.50;100.00
73700;BME280;62005;50.082;8.988;2023-12-20T01:46:40;100508.34;;;5.49;100.00
73700;BME280;62005;50.082;8.988;2023-12-20T01:49:06;100508.34;;;5.49;100.00
73700;BME280;62005;50.082;8.988;2023-12-20T01:51:32;100498.34;;;5.43;100.00
73700;BME280;62005;50.082;8.988;2023-12-20T01:53:59;100512.03;;;5.48;100.00
73700;BME280;62005;50.082;8.988;2023-12-20T01:56:26;100506.28;;;5.51;100.00
73700;BME280;62005;50.082;8.988;2023-12-20T01:58:54;100495.28;;;5.46;100.00
73700;BME280;62005;50.082;8.988;2023-12-20T02:01:21;100499.66;;;5.47;100.00
73700;BME280;62005;50.082;8.988;2023-12-20T02:03:47;100501.31;;;5.48;100.00
73700;BME280;62005;50.082;8.988;2023-12-20T02:06:12;100501.31;;;5.48;100.00
73700;BME280;62005;50.082;8.988;2023-12-20T02:08:37;100504.63;;;5.50;100.00
73700;BME280;62005;50.082;8.988;2023-12-20T02:11:03;100510.38;;;5.47;100.00
73700;BME280;62005;50.082;8.988;2023-12-20T02:13:30;100510.00;;;5.50;100.00
73700;BME280;62005;50.082;8.988;2023-12-20T02:15:56;100508.34;;;5.49;100.00
73700;BME280;62005;50.082;8.988;2023-12-20T02:18:22;100508.34;;;5.49;100.00
73700;BME280;62005;50.082;8.988;2023-12-20T02:20:47;100512.03;;;5.48;100.00
73700;BME280;62005;50.082;8.988;2023-12-20T02:23:12;100512.03;;;5.48;100.00
73700;BME280;62005;50.082;8.988;2023-12-20T02:25:38;100512.03;;;5.48;100.00
73700;BME280;62005;50.082;8.988;2023-12-20T02:28:04;100508.69;;;5.46;100.00
73700;BME280;62005;50.082;8.988;2023-12-20T02:30:30;100512.03;;;5.48;100.00
73700;BME280;62005;50.082;8.988;2023-12-20T02:32:56;100508.06;;;5.44;100.00
73700;BME280;62005;50.082;8.988;2023-12-20T02:35:21;100494.03;;;5.42;100.00
73700;BME280;62005;50.082;8.988;2023-12-20T02:37:46;100502.44;;;5.39;100.00
73700;BME280;62005;50.082;8.988;2023-12-20T02:40:12;100503.06;;;5.41;100.00
73700;BME280;62005;50.082;8.988;2023-12-20T02:42:37;100484.69;;;5.38;100.00
73700;BME280;62005;50.082;8.988;2023-12-20T02:45:03;100484.69;;;5.38;100.00
73700;BME280;62005;50.082;8.988;2023-12-20T02:47:28;100482.28;;;5.43;100.00
73700;BME280;62005;50.082;8.988;2023-12-20T02:49:55;100477.28;;;5.40;100.00
73700;BME280;62005;50.082;8.988;2023-12-20T02:52:22;100490.97;;;5.45;100.00
73700;BME280;62005;50.082;8.988;2023-12-20T02:54:47;100496.72;;;5.42;100.00
73700;BME280;62005;50.082;8.988;2023-12-20T02:57:13;100495.03;;;5.41;100.00
73700;BME280;62005;50.082;8.988;2023-12-20T02:59:38;100501.03;;;5.43;100.00
73700;BME280;62005;50.082;8.988;2023-12-20T03:02:03;100499.19;;;5.43;100.00
73700;BME280;62005;50.082;8.988;2023-12-20T03:04:29;100499.19;;;5.43;100.00
73700;BME280;62005;50.082;8.988;2023-12-20T03:06:55;100484.31;;;5.41;100.00
73700;BME280;62005;50.082;8.988;2023-12-20T03:09:20;100489.31;;;5.44;100.00
73700;BME280;62005;50.082;8.988;2023-12-20T03:11:45;100492.63;;;5.46;100.00
73700;BME280;62005;50.082;8.988;2023-12-20T03:14:11;100505.03;;;5.47;100.00
73700;BME280;62005;50.082;8.988;2023-12-20T03:16:36;100508.69;;;5.46;100.00
73700;BME280;62005;50.082;8.988;2023-12-20T03:19:02;100511.94;;;5.41;100.00
73700;BME280;62005;50.082;8.988;2023-12-20T03:21:28;100507.44;;;5.42;100.00
73700;BME280;62005;50.082;8.988;2023-12-20T03:23:53;100499.66;;;5.47;100.00
73700;BME280;62005;50.082;8.988;2023-12-20T03:26:18;100503.00;;;5.49;100.00
73700;BME280;62005;50.082;8.988;2023-12-20T03:28:44;100500.31;;;5.49;100.00
73700;BME280;62005;50.082;8.988;2023-12-20T03:31:10;100501.31;;;5.48;100.00
73700;BME280;62005;50.082;8.988;2023-12-20T03:33:36;100505.81;;;5.47;100.00
73700;BME280;62005;50.082;8.988;2023-12-20T03:36:01;100489.84;;;5.39;100.00
73700;BME280;62005;50.082;8.988;2023-12-20T03:38:27;100514.06;;;5.46;100.00
73700;BME280;62005;50.082;8.988;2023-12-20T03:40:52;100521.09;;;5.47;100.00
73700;BME280;62005;50.082;8.988;2023-12-20T03:43:17;100521.56;;;5.50;100.00
73700;BME280;62005;50.082;8.988;2023-12-20T03:45:43;100513.72;;;5.49;100.00
73700;BME280;62005;50.082;8.988;2023-12-20T03:48:09;100503.00;;;5.49;100.00
73700;BME280;62005;50.082;8.988;2023-12-20T03:50:34;100501.31;;;5.48;100.00
73700;BME280;62005;50.082;8.988;2023-12-20T03:53:00;100515.81;;;5.53;100.00
73700;BME280;62005;50.082;8.988;2023-12-20T03:55:25;100508.34;;;5.49;100.00
73700;BME280;62005;50.082;8.988;2023-12-20T03:57:51;100527.00;;;5.57;100.00
73700;BME280;62005;50.082;8.988;2023-12-20T04:00:16;100523.69;;;5.55;100.00
73700;BME280;62005;50.082;8.988;2023-12-20T04:02:42;100519.97;;;5.56;100.00
73700;BME280;62005;50.082;8.988;2023-12-20T04:05:08;100524.53;;;5.55;100.00
73700;BME280;62005;50.082;8.988;2023-12-20T04:07:35;100522.91;;;5.61;100.00
73700;BME280;62005;50.082;8.988;2023-12-20T04:10:01;100524.94;;;5.59;100.00
73700;BME280;62005;50.082;8.988;2023-12-20T04:12:30;100529.13;;;5.61;100.00
73700;BME280;62005;50.082;8.988;2023-12-20T04:14:58;100527.00;;;5.57;100.00
73700;BME280;62005;50.082;8.988;2023-12-20T04:17:23;100535.69;;;5.59;100.00
73700;BME280;62005;50.082;8.988;2023-12-20T04:19:49;100532.00;;;5.60;100.00
73700;BME280;62005;50.082;8.988;2023-12-20T04:22:15;100535.34;;;5.62;100.00
73700;BME280;62005;50.082;8.988;2023-12-20T04:24:41;100536.31;;;5.61;100.00
73700;BME280;62005;50.082;8.988;2023-12-20T04:27:07;100542.72;;;5.60;100.00
73700;BME280;62005;50.082;8.988;2023-12-20T04:29:33;100546.06;;;5.62;100.00
73700;BME280;62005;50.082;8.988;2023-12-20T04:31:58;100551.03;;;5.65;100.00
73700;BME280;62005;50.082;8.988;2023-12-20T04:34:24;100554.38;;;5.67;100.00
73700;BME280;62005;50.082;8.988;2023-12-20T04:36:49;100545.69;;;5.65;100.00
73700;BME280;62005;50.082;8.988;2023-12-20T04:39:15;100547.31;;;5.66;100.00
73700;BME280;62005;50.082;8.988;2023-12-20T04:41:40;100551.69;;;5.67;100.00
73700;BME280;62005;50.082;8.988;2023-12-20T04:44:05;100542.81;;;5.66;100.00
73700;BME280;62005;50.082;8.988;2023-12-20T04:46:31;100546.34;;;5.67;100.00
73700;BME280;62005;50.082;8.988;2023-12-20T04:48:56;100555.19;;;5.67;100.00
73700;BME280;62005;50.082;8.988;2023-12-20T04:51:22;100576.44;;;5.69;100.00
73700;BME280;62005;50.082;8.988;2023-12-20T04:53:47;100567.78;;;5.67;100.00
73700;BME280;62005;50.082;8.988;2023-12-20T04:56:13;100565.72;;;5.69;100.00
73700;BME280;62005;50.082;8.988;2023-12-20T04:58:38;100554.38;;;5.67;100.00
73700;BME280;62005;50.082;8.988;2023-12-20T05:01:06;100561.38;;;5.68;100.00
73700;BME280;62005;50.082;8.988;2023-12-20T05:03:31;100551.03;;;5.65;100.00
73700;BME280;62005;50.082;8.988;2023-12-20T05:05:56;100553.06;;;5.63;100.00
73700;BME280;62005;50.082;8.988;2023-12-20T05:08:22;100550.75;;;5.60;100.00
73700;BME280;62005;50.082;8.988;2023-12-20T05:10:47;100570.53;;;5.59;100.00
73700;BME280;62005;50.082;8.988;2023-12-20T05:13:13;100565.28;;;5.51;100.00
73700;BME280;62005;50.082;8.988;2023-12-20T05:15:38;100568.97;;;5.50;100.00
73700;BME280;62005;50.082;8.988;2023-12-20T05:18:04;100570.63;;;5.51;100.00
73700;BME280;62005;50.082;8.988;2023-12-20T05:20:29;100583.03;;;5.52;100.00
73700;BME280;62005;50.082;8.988;2023-12-20T05:22:55;100573.69;;;5.48;100.00
73700;BME280;62005;50.082;8.988;2023-12-20T05:25:20;100576.38;;;5.48;100.00
73700;BME280;62005;50.082;8.988;2023-12-20T05:27:45;100585.44;;;5.47;100.00
73700;BME280;62005;50.082;8.988;2023-12-20T05:30:11;100597.81;;;5.48;100.00
73700;BME280;62005;50.082;8.988;2023-12-20T05:32:36;100601.91;;;5.44;100.00
73700;BME280;62005;50.082;8.988;2023-12-20T05:35:02;100604.38;;;5.45;100.00
73700;BME280;62005;50.082;8.988;2023-12-20T05:37:28;100612.25;;;5.47;100.00
73700;BME280;62005;50.082;8.988;2023-12-20T05:39:54;100618.78;;;5.44;100.00
73700;BME280;62005;50.082;8.988;2023-12-20T05:42:19;100626.19;;;5.42;100.00
73700;BME280;62005;50.082;8.988;2023-12-20T05:44:44;100622.69;;;5.42;100.00
73700;BME280;62005;50.082;8.988;2023-12-20T05:47:10;100615.03;;;5.39;100.00
73700;BME280;62005;50.082;8.988;2023-12-20T05:49:35;100622.03;;;5.40;100.00
73700;BME280;62005;50.082;8.988;2023-12-20T05:52:01;100615.03;;;5.39;100.00
73700;BME280;62005;50.082;8.988;2023-12-20T05:54:26;100606.97;;;5.39;100.00
73700;BME280;62005;50.082;8.988;2023-12-20T05:56:51;100620.19;;;5.40;100.00
73700;BME280;62005;50.082;8.988;2023-12-20T05:59:17;100622.41;;;5.37;100.00
73700;BME280;62005;50.082;8.988;2023-12-20T06:01:42;100629.41;;;5.38;100.00
73700;BME280;62005;50.082;8.988;2023-12-20T06:04:08;100622.78;;;5.33;100.00
73700;BME280;62005;50.082;8.988;2023-12-20T06:06:33;100623.78;;;5.32;100.00
73700;BME280;62005;50.082;8.988;2023-12-20T06:08:59;100626.44;;;5.32;100.00
73700;BME280;62005;50.082;8.988;2023-12-20T06:11:25;100621.09;;;5.32;100.00
73700;BME280;62005;50.082;8.988;2023-12-20T06:13:51;100619.44;;;5.31;100.00
73700;BME280;62005;50.082;8.988;2023-12-20T06:16:18;100631.81;;;5.32;100.00
73700;BME280;62005;50.082;8.988;2023-12-20T06:18:44;100639.19;;;5.30;100.00
73700;BME280;62005;50.082;8.988;2023-12-20T06:21:09;100633.38;;;5.27;100.00
73700;BME280;62005;50.082;8.988;2023-12-20T06:23:38;100639.38;;;5.29;100.00
73700;BME280;62005;50.082;8.988;2023-12-20T06:26:03;100640.78;;;5.25;100.00
73700;BME280;62005;50.082;8.988;2023-12-20T06:28:29;100645.09;;;5.26;100.00
73700;BME280;62005;50.082;8.988;2023-12-20T06:30:54;100647.41;;;5.29;100.00
73700;BME280;62005;50.082;8.988;2023-12-20T06:33:20;100647.22;;;5.30;100.00
73700;BME280;62005;50.082;8.988;2023-12-20T06:35:47;100648.25;;;5.29;100.00
73700;BME280;62005;50.082;8.988;2023-12-20T06:38:12;100647.41;;;5.29;100.00
73700;BME280;62005;50.082;8.988;2023-12-20T06:40:38;100648.63;;;5.26;100.00
73700;BME280;62005;50.082;8.988;2023-12-20T06:43:03;100642.44;;;5.26;100.00
73700;BME280;62005;50.082;8.988;2023-12-20T06:45:29;100651.50;;;5.25;100.00
73700;BME280;62005;50.082;8.988;2023-12-20T06:47:54;100647.31;;;5.22;100.00
73700;BME280;62005;50.082;8.988;2023-12-20T06:50:20;100638.66;;;5.20;100.00
73700;BME280;62005;50.082;8.988;2023-12-20T06:52:45;100644.28;;;5.25;100.00
73700;BME280;62005;50.082;8.988;2023-12-20T06:55:11;100652.69;;;5.22;100.00
73700;BME280;62005;50.082;8.988;2023-12-20T06:57:36;100660.09;;;5.20;100.00
73700;BME280;62005;50.082;8.988;2023-12-20T07:00:02;100654.25;;;5.17;100.00
73700;BME280;62005;50.082;8.988;2023-12-20T07:02:28;100653.78;;;5.13;100.00
73700;BME280;62005;50.082;8.988;2023-12-20T07:04:55;100651.78;;;5.07;100.00
73700;BME280;62005;50.082;8.988;2023-12-20T07:07:21;100647.47;;;5.06;100.00
73700;BME280;62005;50.082;8.988;2023-12-20T07:09:48;100654.47;;;5.07;100.00
73700;BME280;62005;50.082;8.988;2023-12-20T07:12:14;100649.00;;;5.01;100.00
73700;BME280;62005;50.082;8.988;2023-12-20T07:14:39;100656.88;;;5.02;100.00
73700;BME280;62005;50.082;8.988;2023-12-20T07:17:04;100664.28;;;5.00;100.00
73700;BME280;62005;50.082;8.988;2023-12-20T07:19:30;100668.59;;;5.01;100.00
73700;BME280;62005;50.082;8.988;2023-12-20T07:21:55;100673.59;;;5.04;100.00
73700;BME280;62005;50.082;8.988;2023-12-20T07:24:21;100671.94;;;5.03;100.00
73700;BME280;62005;50.082;8.988;2023-12-20T07:26:46;100670.91;;;5.04;100.00
73700;BME280;62005;50.082;8.988;2023-12-20T07:29:11;100664.91;;;5.02;100.00
73700;BME280;62005;50.082;8.988;2023-12-20T07:31:37;100674.25;;;5.06;100.00
73700;BME280;62005;50.082;8.988;2023-12-20T07:34:03;100670.56;;;5.07;100.00
73700;BME280;62005;50.082;8.988;2023-12-20T07:36:28;100686.28;;;5.10;100.00
73700;BME280;62005;50.082;8.988;2023-12-20T07:38:54;100677.22;;;5.11;100.00
73700;BME280;62005;50.082;8.988;2023-12-20T07:41:20;100680.09;;;5.10;100.00
73700;BME280;62005;50.082;8.988;2023-12-20T07:43:46;100691.66;;;5.10;100.00
73700;BME280;62005;50.082;8.988;2023-12-20T07:46:12;100677.22;;;5.11;100.00
73700;BME280;62005;50.082;8.988;2023-12-20T07:48:38;100675.56;;;5.10;100.00
73700;BME280;62005;50.082;8.988;2023-12-20T07:51:04;100676.06;;;5.14;100.00
73700;BME280;62005;50.082;8.988;2023-12-20T07:53:32;100668.53;;;5.09;100.00
73700;BME280;62005;50.082;8.988;2023-12-20T07:55:58;100668.53;;;5.09;100.00
73700;BME280;62005;50.082;8.988;2023-12-20T07:58:23;100672.22;;;5.08;100.00
73700;BME280;62005;50.082;8.988;2023-12-20T08:00:49;100683.94;;;5.07;100.00
73700;BME280;62005;50.082;8.988;2023-12-20T08:03:14;100690.31;;;5.06;100.00
73700;BME280;62005;50.082;8.988;2023-12-20T08:05:40;100688.31;;;5.08;100.00
73700;BME280;62005;50.082;8.988;2023-12-20T08:08:06;100695.31;;;5.09;100.00
73700;BME280;62005;50.082;8.988;2023-12-20T08:10:31;100707.38;;;5.13;100.00
73700;BME280;62005;50.082;8.988;2023-12-20T08:12:57;100711.03;;;5.12;100.00
73700;BME280;62005;50.082;8.988;2023-12-20T08:15:22;100701.63;;;5.16;100.00
73700;BME280;62005;50.082;8.988;2023-12-20T08:17:48;100707.00;;;5.16;100.00
73700;BME280;62005;50.082;8.988;2023-12-20T08:20:16;100718.38;;;5.18;100.00
73700;BME280;62005;50.082;8.988;2023-12-20T08:22:41;100707.47;;;5.20;100.00
73700;BME280;62005;50.082;8.988;2023-12-20T08:25:07;100713.69;;;5.20;100.00
73700;BME280;62005;50.082;8.988;2023-12-20T08:27:33;100717.34;;;5.19;100.00
73700;BME280;62005;50.082;8.988;2023-12-20T08:29:59;100716.00;;;5.23;100.00
73700;BME280;62005;50.082;8.988;2023-12-20T08:32:27;100724.50;;;5.27;100.00
73700;BME280;62005;50.082;8.988;2023-12-20T08:34:52;100721.34;;;5.23;100.00
73700;BME280;62005;50.082;8.988;2023-12-20T08:37:18;100707.28;;;5.21;100.00
73700;BME280;62005;50.082;8.988;2023-12-20T08:39:43;100721.66;;;5.28;100.00
73700;BME280;62005;50.082;8.988;2023-12-20T08:42:09;100718.97;;;5.28;100.00
73700;BME280;62005;50.082;8.988;2023-12-20T08:44:35;100730.31;;;5.30;100.00
73700;BME280;62005;50.082;8.988;2023-12-20T08:47:00;100707.59;;;5.26;100.00
73700;BME280;62005;50.082;8.988;2023-12-20T08:49:25;100710.56;;;5.31;100.00
73700;BME280;62005;50.082;8.988;2023-12-20T08:51:51;100701.88;;;5.29;100.00
73700;BME280;62005;50.082;8.988;2023-12-20T08:54:16;100715.56;;;5.34;100.00
73700;BME280;62005;50.082;8.988;2023-12-20T08:56:42;100713.53;;;5.37;100.00
73700;BME280;62005;50.082;8.988;2023-12-20T08:59:08;100714.38;;;5.37;100.00
73700;BME280;62005;50.082;8.988;2023-12-20T09:01:34;100710.47;;;5.40;100.00
73700;BME280;62005;50.082;8.988;2023-12-20T09:04:00;100711.50;;;5.39;100.00
73700;BME280;62005;50.082;8.988;2023-12-20T09:06:25;100706.16;;;5.39;100.00
73700;BME280;62005;50.082;8.988;2023-12-20T09:08:51;100708.66;;;5.40;100.00
73700;BME280;62005;50.082;8.988;2023-12-20T09:11:17;100707.81;;;5.40;100.00
73700;BME280;62005;50.082;8.988;2023-12-20T09:13:43;100709.13;;;5.44;100.00
73700;BME280;62005;50.082;8.988;2023-12-20T09:16:09;100707.91;;;5.46;100.00
73700;BME280;62005;50.082;8.988;2023-12-20T09:18:35;100708.75;;;5.47;100.00
73700;BME280;62005;50.082;8.988;2023-12-20T09:21:00;100715.41;;;5.51;100.00
73700;BME280;62005;50.082;8.988;2023-12-20T09:23:27;100703.50;;;5.53;100.00
73700;BME280;62005;50.082;8.988;2023-12-20T09:25:52;100705.16;;;5.54;100.00
73700;BME280;62005;50.082;8.988;2023-12-20T09:28:18;100718.00;;;5.59;100.00
73700;BME280;62005;50.082;8.988;2023-12-20T09:30:43;100721.34;;;5.61;100.00
73700;BME280;62005;50.082;8.988;2023-12-20T09:33:10;100722.00;;;5.63;100.00
73700;BME280;62005;50.082;8.988;2023-12-20T09:35:36;100724.31;;;5.66;100.00
73700;BME280;62005;50.082;8.988;2023-12-20T09:38:01;100721.06;;;5.70;100.00
73700;BME280;62005;50.082;8.988;2023-12-20T09:40:27;100714.06;;;5.69;100.00
73700;BME280;62005;50.082;8.988;2023-12-20T09:42:58;100721.53;;;5.74;100.00
73700;BME280;62005;50.082;8.988;2023-12-20T09:45:26;100724.88;;;5.76;100.00
73700;BME280;62005;50.082;8.988;2023-12-20T09:47:54;100710.81;;;5.74;100.00
73700;BME280;62005;50.082;8.988;2023-12-20T09:50:21;100729.50;;;5.82;100.00
73700;BME280;62005;50.082;8.988;2023-12-20T09:52:52;100724.16;;;5.82;100.00
73700;BME280;62005;50.082;8.988;2023-12-20T09:55:18;100718.47;;;5.85;100.00
73700;BME280;62005;50.082;8.988;2023-12-20T09:57:45;100725.50;;;5.86;100.00
73700;BME280;62005;50.082;8.988;2023-12-20T10:00:11;100714.75;;;5.86;100.00
73700;BME280;62005;50.082;8.988;2023-12-20T10:02:38;100723.09;;;5.91;100.00
73700;BME280;62005;50.082;8.988;2023-12-20T10:05:08;100714.38;;;5.89;100.00
73700;BME280;62005;50.082;8.988;2023-12-20T10:07:35;100728.09;;;5.94;100.00
73700;BME280;62005;50.082;8.988;2023-12-20T10:10:01;100717.34;;;5.94;100.00
73700;BME280;62005;50.082;8.988;2023-12-20T10:12:27;100725.41;;;5.94;100.00
73700;BME280;62005;50.082;8.988;2023-12-20T10:14:52;100722.34;;;5.97;100.00
73700;BME280;62005;50.082;8.988;2023-12-20T10:17:18;100720.31;;;5.99;100.00
73700;BME280;62005;50.082;8.988;2023-12-20T10:19:43;100719.94;;;6.02;100.00
73700;BME280;62005;50.082;8.988;2023-12-20T10:22:10;100716.91;;;6.05;100.00
73700;BME280;62005;50.082;8.988;2023-12-20T10:24:35;100719.22;;;6.08;100.00
73700;BME280;62005;50.082;8.988;2023-12-20T10:27:04;100713.84;;;6.08;100.00
73700;BME280;62005;50.082;8.988;2023-12-20T10:29:36;100708.50;;;6.08;100.00
73700;BME280;62005;50.082;8.988;2023-12-20T10:32:25;100718.84;;;6.11;100.00
73700;BME280;62005;50.082;8.988;2023-12-20T10:34:51;100708.13;;;6.11;100.00
73700;BME280;62005;50.082;8.988;2023-12-20T10:37:17;100699.03;;;6.12;100.00
73700;BME280;62005;50.082;8.988;2023-12-20T10:39:43;100694.50;;;6.12;100.00
73700;BME280;62005;50.082;8.988;2023-12-20T10:42:12;100690.31;;;6.10;100.00
73700;BME280;62005;50.082;8.988;2023-12-20T10:44:37;100678.88;;;6.16;100.00
73700;BME280;62005;50.082;8.988;2023-12-20T10:47:04;100671.00;;;6.14;100.00
73700;BME280;62005;50.082;8.988;2023-12-20T10:49:30;100676.84;;;6.18;100.00
73700;BME280;62005;50.082;8.988;2023-12-20T10:51:59;100663.22;;;6.19;100.00
73700;BME280;62005;50.082;8.988;2023-12-20T10:54:27;100669.06;;;6.23;100.00
73700;BME280;62005;50.082;8.988;2023-12-20T10:56:53;100675.69;;;6.27;100.00
73700;BME280;62005;50.082;8.988;2023-12-20T10:59:20;100673.66;;;6.29;100.00
73700;BME280;62005;50.082;8.988;2023-12-20T11:01:48;100669.59;;;6.33;100.00
73700;BME280;62005;50.082;8.988;2023-12-20T11:04:19;100654.38;;;6.40;100.00
73700;BME280;62005;50.082;8.988;2023-12-20T11:06:56;100653.63;;;6.46;100.00
73700;BME280;62005;50.082;8.988;2023-12-20T11:09:38;100650.06;;;6.60;100.00
73700;BME280;62005;50.082;8.988;2023-12-20T11:12:43;100642.72;;;6.69;100.00
73700;BME280;62005;50.082;8.988;2023-12-20T11:15:07;100644.09;;;6.79;100.00
73700;BME280;62005;50.082;8.988;2023-12-20T11:17:33;100637.53;;;6.88;100.00
73700;BME280;62005;50.082;8.988;2023-12-20T11:22:28;100638.56;;;7.08;100.00
73700;BME280;62005;50.082;8.988;2023-12-20T11:24:58;100639.91;;;7.19;100.00
73700;BME280;62005;50.082;8.988;2023-12-20T11:27:24;100628.41;;;7.31;100.00
73700;BME280;62005;50.082;8.988;2023-12-20T11:29:57;100637.63;;;7.43;100.00
73700;BME280;62005;50.082;8.988;2023-12-20T11:34:59;100632.81;;;7.66;100.00
73700;BME280;62005;50.082;8.988;2023-12-20T11:37:32;100630.97;;;7.73;100.00
73700;BME280;62005;50.082;8.988;2023-12-20T11:40:06;100640.31;;;7.77;100.00
73700;BME280;62005;50.082;8.988;2023-12-20T11:42:33;100638.25;;;7.79;100.00
73700;BME280;62005;50.082;8.988;2023-12-20T11:44:59;100626.91;;;7.84;98.95
73700;BME280;62005;50.082;8.988;2023-12-20T11:47:29;100634.16;;;7.90;100.00
73700;BME280;62005;50.082;8.988;2023-12-20T11:49:54;100641.66;;;7.94;100.00
73700;BME280;62005;50.082;8.988;2023-12-20T11:52:21;100629.22;;;7.93;100.00
73700;BME280;62005;50.082;8.988;2023-12-20T11:54:46;100623.47;;;7.97;97.78
73700;BME280;62005;50.082;8.988;2023-12-20T11:57:13;100628.22;;;7.94;95.99
73700;BME280;62005;50.082;8.988;2023-12-20T11:59:38;100616.81;;;7.92;97.16
73700;BME280;62005;50.082;8.988;2023-12-20T12:02:04;100626.28;;;7.88;96.92
73700;BME280;62005;50.082;8.988;2023-12-20T12:04:29;100623.00;;;7.86;94.04
73700;BME280;62005;50.082;8.988;2023-12-20T12:06:55;100612.38;;;7.78;94.60
73700;BME280;62005;50.082;8.988;2023-12-20T12:09:20;100620.44;;;7.78;93.50
73700;BME280;62005;50.082;8.988;2023-12-20T12:11:45;100626.22;;;7.75;94.48
73700;BME280;62005;50.082;8.988;2023-12-20T12:14:11;100628.28;;;7.73;94.21
73700;BME280;62005;50.082;8.988;2023-12-20T12:16:37;100621.25;;;7.72;95.62
73700;BME280;62005;50.082;8.988;2023-12-20T12:19:02;100621.19;;;7.66;94.15
73700;BME280;62005;50.082;8.988;2023-12-20T12:21:27;100617.88;;;7.64;95.27
73700;BME280;62005;50.082;8.988;2023-12-20T12:23:53;100612.69;;;7.62;94.98
73700;BME280;62005;50.082;8.988;2023-12-20T12:26:18;100615.16;;;7.57;93.80
73700;BME280;62005;50.082;8.988;2023-12-20T12:28:44;100613.66;;;7.48;94.19
73700;BME280;62005;50.082;8.988;2023-12-20T12:31:14;100602.06;;;7.48;94.34
73700;BME280;62005;50.082;8.988;2023-12-20T12:33:42;100607.38;;;7.41;94.34
73700;BME280;62005;50.082;8.988;2023-12-20T12:36:10;100615.25;;;7.43;95.02
73700;BME280;62005;50.082;8.988;2023-12-20T12:38:36;100609.88;;;7.43;95.58
73700;BME280;62005;50.082;8.988;2023-12-20T12:41:01;100595.78;;;7.41;95.71
73700;BME280;62005;50.082;8.988;2023-12-20T12:43:27;100588.97;;;7.38;95.25
73700;BME280;62005;50.082;8.988;2023-12-20T12:45:53;100584.59;;;7.37;95.05
73700;BME280;62005;50.082;8.988;2023-12-20T12:48:19;100575.53;;;7.38;94.95
73700;BME280;62005;50.082;8.988;2023-12-20T12:50:45;100573.47;;;7.40;95.34